sensor_id;sensor_type;location;lat;lon;timestamp;P1;durP1;ratioP1;P2;durP2;ratioP2
20970;SDS011;10644;48.834;10.088;2022-08-21T00:01:53;15.23;;;5.27;;
20970;SDS011;10644;48.834;10.088;2022-08-21T00:04:21;22.87;;;5.73;;
20970;SDS011;10644;48.834;10.088;2022-08-21T00:06:52;17.03;;;5.40;;
20970;SDS011;10644;48.834;10.088;2022-08-21T00:09:34;14.40;;;5.90;;
20970;SDS011;10644;48.834;10.088;2022-08-21T00:14:45;19.47;;;5.13;;
20970;SDS011;10644;48.834;10.088;2022-08-21T00:17:10;10.70;;;4.60;;
20970;SDS011;10644;48.834;10.088;2022-08-21T00:19:38;32.67;;;6.80;;
20970;SDS011;10644;48.834;10.088;2022-08-21T00:22:17;11.23;;;5.33;;
20970;SDS011;10644;48.834;10.088;2022-08-21T00:27:35;16.13;;;5.03;;
20970;SDS011;10644;48.834;10.088;2022-08-21T00:32:54;11.87;;;5.37;;
20970;SDS011;10644;48.834;10.088;2022-08-21T00:35:38;11.70;;;4.17;;
20970;SDS011;10644;48.834;10.088;2022-08-21T00:38:06;23.97;;;6.47;;
20970;SDS011;10644;48.834;10.088;2022-08-21T00:40:48;9.60;;;4.90;;
20970;SDS011;10644;48.834;10.088;2022-08-21T00:43:39;20.53;;;5.90;;
20970;SDS011;10644;48.834;10.088;2022-08-21T00:46:08;15.23;;;5.10;;
20970;SDS011;10644;48.834;10.088;2022-08-21T00:54:15;11.37;;;5.17;;
20970;SDS011;10644;48.834;10.088;2022-08-21T00:56:52;16.00;;;5.43;;
20970;SDS011;10644;48.834;10.088;2022-08-21T00:59:21;9.23;;;4.87;;
20970;SDS011;10644;48.834;10.088;2022-08-21T01:02:04;11.47;;;5.50;;
20970;SDS011;10644;48.834;10.088;2022-08-21T01:04:40;10.57;;;4.87;;
20970;SDS011;10644;48.834;10.088;2022-08-21T01:07:10;16.40;;;4.73;;
20970;SDS011;10644;48.834;10.088;2022-08-21T01:12:29;10.40;;;5.13;;
20970;SDS011;10644;48.834;10.088;2022-08-21T01:14:55;11.87;;;5.13;;
20970;SDS011;10644;48.834;10.088;2022-08-21T01:17:27;15.67;;;5.03;;
20970;SDS011;10644;48.834;10.088;2022-08-21T01:19:57;12.00;;;5.33;;
20970;SDS011;10644;48.834;10.088;2022-08-21T01:22:42;14.37;;;6.53;;
20970;SDS011;10644;48.834;10.088;2022-08-21T01:25:08;21.17;;;5.70;;
20970;SDS011;10644;48.834;10.088;2022-08-21T01:30:30;14.57;;;5.70;;
20970;SDS011;10644;48.834;10.088;2022-08-21T01:33:09;20.23;;;5.17;;
20970;SDS011;10644;48.834;10.088;2022-08-21T01:40:56;13.77;;;6.10;;
20970;SDS011;10644;48.834;10.088;2022-08-21T01:46:21;14.83;;;5.10;;
20970;SDS011;10644;48.834;10.088;2022-08-21T01:48:47;10.47;;;4.73;;
20970;SDS011;10644;48.834;10.088;2022-08-21T01:51:12;15.87;;;6.03;;
20970;SDS011;10644;48.834;10.088;2022-08-21T01:59:16;12.57;;;6.00;;
20970;SDS011;10644;48.834;10.088;2022-08-21T02:04:21;10.50;;;5.60;;
20970;SDS011;10644;48.834;10.088;2022-08-21T02:06:52;10.13;;;6.20;;
20970;SDS011;10644;48.834;10.088;2022-08-21T02:09:23;9.90;;;5.03;;
20970;SDS011;10644;48.834;10.088;2022-08-21T02:11:52;9.23;;;4.67;;
20970;SDS011;10644;48.834;10.088;2022-08-21T02:17:19;12.93;;;5.27;;
20970;SDS011;10644;48.834;10.088;2022-08-21T02:22:51;9.23;;;4.40;;
20970;SDS011;10644;48.834;10.088;2022-08-21T02:25:24;9.63;;;4.80;;
20970;SDS011;10644;48.834;10.088;2022-08-21T02:27:54;10.70;;;4.73;;
20970;SDS011;10644;48.834;10.088;2022-08-21T02:30:34;16.53;;;5.80;;
20970;SDS011;10644;48.834;10.088;2022-08-21T02:38:34;19.63;;;5.33;;
20970;SDS011;10644;48.834;10.088;2022-08-21T02:41:05;11.37;;;5.03;;
20970;SDS011;10644;48.834;10.088;2022-08-21T02:43:33;16.53;;;5.73;;
20970;SDS011;10644;48.834;10.088;2022-08-21T02:48:50;14.50;;;5.60;;
20970;SDS011;10644;48.834;10.088;2022-08-21T02:51:29;13.10;;;5.57;;
20970;SDS011;10644;48.834;10.088;2022-08-21T02:54:07;19.90;;;5.40;;
20970;SDS011;10644;48.834;10.088;2022-08-21T02:56:39;11.33;;;5.10;;
20970;SDS011;10644;48.834;10.088;2022-08-21T03:04:28;10.63;;;5.33;;
20970;SDS011;10644;48.834;10.088;2022-08-21T03:07:05;10.40;;;5.07;;
20970;SDS011;10644;48.834;10.088;2022-08-21T03:12:10;17.47;;;5.00;;
20970;SDS011;10644;48.834;10.088;2022-08-21T03:17:49;19.00;;;5.73;;
20970;SDS011;10644;48.834;10.088;2022-08-21T03:25:47;12.70;;;5.00;;
20970;SDS011;10644;48.834;10.088;2022-08-21T03:28:24;35.03;;;6.60;;
20970;SDS011;10644;48.834;10.088;2022-08-21T03:30:59;31.30;;;6.40;;
20970;SDS011;10644;48.834;10.088;2022-08-21T03:33:34;19.53;;;5.73;;
20970;SDS011;10644;48.834;10.088;2022-08-21T03:36:01;18.10;;;5.40;;
20970;SDS011;10644;48.834;10.088;2022-08-21T03:38:35;26.17;;;6.10;;
20970;SDS011;10644;48.834;10.088;2022-08-21T03:41:10;17.43;;;6.03;;
20970;SDS011;10644;48.834;10.088;2022-08-21T03:43:35;10.70;;;4.60;;
20970;SDS011;10644;48.834;10.088;2022-08-21T03:48:48;20.13;;;4.60;;
20970;SDS011;10644;48.834;10.088;2022-08-21T03:51:13;26.83;;;5.30;;
20970;SDS011;10644;48.834;10.088;2022-08-21T03:53:52;13.70;;;4.33;;
20970;SDS011;10644;48.834;10.088;2022-08-21T03:56:32;32.63;;;5.40;;
20970;SDS011;10644;48.834;10.088;2022-08-21T04:02:26;18.80;;;5.20;;
20970;SDS011;10644;48.834;10.088;2022-08-21T04:07:35;13.77;;;4.60;;
20970;SDS011;10644;48.834;10.088;2022-08-21T04:10:05;13.60;;;5.10;;
20970;SDS011;10644;48.834;10.088;2022-08-21T04:18:41;18.80;;;4.90;;
20970;SDS011;10644;48.834;10.088;2022-08-21T04:21:22;30.50;;;6.10;;
20970;SDS011;10644;48.834;10.088;2022-08-21T04:29:13;31.83;;;5.97;;
20970;SDS011;10644;48.834;10.088;2022-08-21T04:31:56;14.23;;;4.63;;
20970;SDS011;10644;48.834;10.088;2022-08-21T04:34:23;14.70;;;6.13;;
20970;SDS011;10644;48.834;10.088;2022-08-21T04:36:49;14.13;;;5.60;;
20970;SDS011;10644;48.834;10.088;2022-08-21T04:42:12;12.73;;;5.07;;
20970;SDS011;10644;48.834;10.088;2022-08-21T04:44:44;18.53;;;6.20;;
20970;SDS011;10644;48.834;10.088;2022-08-21T04:47:28;20.63;;;4.63;;
20970;SDS011;10644;48.834;10.088;2022-08-21T04:49:53;22.10;;;6.13;;
20970;SDS011;10644;48.834;10.088;2022-08-21T04:52:27;13.20;;;5.60;;
20970;SDS011;10644;48.834;10.088;2022-08-21T04:54:54;20.03;;;5.80;;
20970;SDS011;10644;48.834;10.088;2022-08-21T04:57:20;23.20;;;5.30;;
20970;SDS011;10644;48.834;10.088;2022-08-21T04:59:52;33.07;;;8.90;;
20970;SDS011;10644;48.834;10.088;2022-08-21T05:02:19;16.73;;;5.50;;
20970;SDS011;10644;48.834;10.088;2022-08-21T05:07:59;16.57;;;5.30;;
20970;SDS011;10644;48.834;10.088;2022-08-21T05:10:26;16.20;;;5.53;;
20970;SDS011;10644;48.834;10.088;2022-08-21T05:12:52;24.87;;;6.13;;
20970;SDS011;10644;48.834;10.088;2022-08-21T05:24:17;24.13;;;5.73;;
20970;SDS011;10644;48.834;10.088;2022-08-21T05:26:47;18.67;;;6.27;;
20970;SDS011;10644;48.834;10.088;2022-08-21T05:29:27;14.63;;;6.40;;
20970;SDS011;10644;48.834;10.088;2022-08-21T05:32:08;13.20;;;6.57;;
20970;SDS011;10644;48.834;10.088;2022-08-21T05:34:42;34.00;;;8.80;;
20970;SDS011;10644;48.834;10.088;2022-08-21T05:42:46;20.80;;;7.47;;
20970;SDS011;10644;48.834;10.088;2022-08-21T05:45:28;20.30;;;8.30;;
20970;SDS011;10644;48.834;10.088;2022-08-21T05:50:55;20.97;;;7.00;;
20970;SDS011;10644;48.834;10.088;2022-08-21T05:56:28;28.90;;;7.83;;
20970;SDS011;10644;48.834;10.088;2022-08-21T05:59:07;17.43;;;6.77;;
20970;SDS011;10644;48.834;10.088;2022-08-21T06:01:32;31.97;;;7.03;;
20970;SDS011;10644;48.834;10.088;2022-08-21T06:04:06;23.53;;;7.10;;
20970;SDS011;10644;48.834;10.088;2022-08-21T06:06:36;15.90;;;5.80;;
20970;SDS011;10644;48.834;10.088;2022-08-21T06:09:03;18.90;;;7.60;;
20970;SDS011;10644;48.834;10.088;2022-08-21T06:11:34;21.17;;;6.27;;
20970;SDS011;10644;48.834;10.088;2022-08-21T06:14:00;18.03;;;5.87;;
20970;SDS011;10644;48.834;10.088;2022-08-21T06:16:26;23.83;;;7.80;;
20970;SDS011;10644;48.834;10.088;2022-08-21T06:21:43;24.90;;;6.80;;
20970;SDS011;10644;48.834;10.088;2022-08-21T06:26:43;32.73;;;7.30;;
20970;SDS011;10644;48.834;10.088;2022-08-21T06:29:22;31.80;;;8.00;;
20970;SDS011;10644;48.834;10.088;2022-08-21T06:37:43;13.40;;;6.17;;
20970;SDS011;10644;48.834;10.088;2022-08-21T06:40:16;21.20;;;7.80;;
20970;SDS011;10644;48.834;10.088;2022-08-21T06:42:56;18.00;;;7.40;;
20970;SDS011;10644;48.834;10.088;2022-08-21T06:45:37;21.23;;;6.50;;
20970;SDS011;10644;48.834;10.088;2022-08-21T06:48:19;24.50;;;7.37;;
20970;SDS011;10644;48.834;10.088;2022-08-21T06:50:58;19.23;;;6.63;;
20970;SDS011;10644;48.834;10.088;2022-08-21T06:53:34;13.70;;;6.80;;
20970;SDS011;10644;48.834;10.088;2022-08-21T06:56:01;16.23;;;6.67;;
20970;SDS011;10644;48.834;10.088;2022-08-21T07:01:38;20.40;;;6.50;;
20970;SDS011;10644;48.834;10.088;2022-08-21T07:04:06;16.17;;;6.37;;
20970;SDS011;10644;48.834;10.088;2022-08-21T07:06:50;12.63;;;5.17;;
20970;SDS011;10644;48.834;10.088;2022-08-21T07:09:22;7.72;;;5.03;;
20970;SDS011;10644;48.834;10.088;2022-08-21T07:11:48;10.17;;;5.53;;
20970;SDS011;10644;48.834;10.088;2022-08-21T07:14:32;9.13;;;5.50;;
20970;SDS011;10644;48.834;10.088;2022-08-21T07:17:07;12.13;;;5.60;;
20970;SDS011;10644;48.834;10.088;2022-08-21T07:19:34;15.20;;;5.90;;
20970;SDS011;10644;48.834;10.088;2022-08-21T07:25:04;13.70;;;5.60;;
20970;SDS011;10644;48.834;10.088;2022-08-21T07:27:37;9.90;;;5.77;;
20970;SDS011;10644;48.834;10.088;2022-08-21T07:30:19;17.60;;;5.80;;
20970;SDS011;10644;48.834;10.088;2022-08-21T07:36:18;11.93;;;5.40;;
20970;SDS011;10644;48.834;10.088;2022-08-21T07:39:03;11.13;;;5.70;;
20970;SDS011;10644;48.834;10.088;2022-08-21T07:46:50;13.00;;;5.50;;
20970;SDS011;10644;48.834;10.088;2022-08-21T07:49:29;11.03;;;5.37;;
20970;SDS011;10644;48.834;10.088;2022-08-21T07:52:08;14.00;;;5.53;;
20970;SDS011;10644;48.834;10.088;2022-08-21T07:57:37;17.07;;;6.00;;
20970;SDS011;10644;48.834;10.088;2022-08-21T08:02:52;7.53;;;5.50;;
20970;SDS011;10644;48.834;10.088;2022-08-21T08:05:23;32.73;;;6.80;;
20970;SDS011;10644;48.834;10.088;2022-08-21T08:07:54;23.73;;;7.03;;
20970;SDS011;10644;48.834;10.088;2022-08-21T08:10:36;28.87;;;8.00;;
20970;SDS011;10644;48.834;10.088;2022-08-21T08:13:11;12.00;;;6.63;;
20970;SDS011;10644;48.834;10.088;2022-08-21T08:15:45;18.20;;;6.23;;
20970;SDS011;10644;48.834;10.088;2022-08-21T08:20:39;21.40;;;7.90;;
20970;SDS011;10644;48.834;10.088;2022-08-21T08:23:17;14.07;;;7.00;;
20970;SDS011;10644;48.834;10.088;2022-08-21T08:25:56;12.50;;;6.80;;
20970;SDS011;10644;48.834;10.088;2022-08-21T08:28:21;13.53;;;6.90;;
20970;SDS011;10644;48.834;10.088;2022-08-21T08:30:49;17.43;;;7.10;;
20970;SDS011;10644;48.834;10.088;2022-08-21T08:36:13;13.20;;;6.13;;
20970;SDS011;10644;48.834;10.088;2022-08-21T08:38:48;14.10;;;6.40;;
20970;SDS011;10644;48.834;10.088;2022-08-21T08:41:16;16.83;;;6.63;;
20970;SDS011;10644;48.834;10.088;2022-08-21T08:43:54;13.80;;;7.47;;
20970;SDS011;10644;48.834;10.088;2022-08-21T08:49:18;13.53;;;6.30;;
20970;SDS011;10644;48.834;10.088;2022-08-21T08:55:21;24.63;;;8.37;;
20970;SDS011;10644;48.834;10.088;2022-08-21T08:57:53;11.33;;;7.40;;
20970;SDS011;10644;48.834;10.088;2022-08-21T09:03:16;12.60;;;7.37;;
20970;SDS011;10644;48.834;10.088;2022-08-21T09:05:52;16.83;;;7.07;;
20970;SDS011;10644;48.834;10.088;2022-08-21T09:13:45;26.37;;;7.90;;
20970;SDS011;10644;48.834;10.088;2022-08-21T09:16:41;21.80;;;7.53;;
20970;SDS011;10644;48.834;10.088;2022-08-21T09:22:16;14.23;;;6.73;;
20970;SDS011;10644;48.834;10.088;2022-08-21T09:25:23;10.77;;;6.37;;
20970;SDS011;10644;48.834;10.088;2022-08-21T09:30:46;15.10;;;6.83;;
20970;SDS011;10644;48.834;10.088;2022-08-21T09:33:12;18.43;;;7.10;;
20970;SDS011;10644;48.834;10.088;2022-08-21T09:35:51;51.63;;;10.40;;
20970;SDS011;10644;48.834;10.088;2022-08-21T09:38:39;43.90;;;9.37;;
20970;SDS011;10644;48.834;10.088;2022-08-21T09:43:55;25.97;;;7.73;;
20970;SDS011;10644;48.834;10.088;2022-08-21T09:46:37;36.87;;;8.00;;
20970;SDS011;10644;48.834;10.088;2022-08-21T09:55:39;9.70;;;5.03;;
20970;SDS011;10644;48.834;10.088;2022-08-21T10:04:35;29.87;;;6.93;;
20970;SDS011;10644;48.834;10.088;2022-08-21T10:13:16;34.77;;;7.47;;
20970;SDS011;10644;48.834;10.088;2022-08-21T11:00:18;8.00;;;4.50;;
20970;SDS011;10644;48.834;10.088;2022-08-21T11:05:55;8.00;;;4.70;;
20970;SDS011;10644;48.834;10.088;2022-08-21T11:11:08;8.37;;;4.43;;
20970;SDS011;10644;48.834;10.088;2022-08-21T11:19:02;6.47;;;3.37;;
20970;SDS011;10644;48.834;10.088;2022-08-21T11:21:53;8.53;;;3.70;;
20970;SDS011;10644;48.834;10.088;2022-08-21T11:30:14;5.30;;;3.97;;
20970;SDS011;10644;48.834;10.088;2022-08-21T11:35:11;8.33;;;4.20;;
20970;SDS011;10644;48.834;10.088;2022-08-21T11:50:18;9.03;;;5.70;;
20970;SDS011;10644;48.834;10.088;2022-08-21T11:58:38;5.87;;;3.20;;
20970;SDS011;10644;48.834;10.088;2022-08-21T12:01:09;6.93;;;3.03;;
20970;SDS011;10644;48.834;10.088;2022-08-21T12:03:42;12.63;;;4.23;;
20970;SDS011;10644;48.834;10.088;2022-08-21T12:06:27;12.53;;;4.60;;
20970;SDS011;10644;48.834;10.088;2022-08-21T12:12:04;6.10;;;3.87;;
20970;SDS011;10644;48.834;10.088;2022-08-21T12:14:42;9.50;;;4.57;;
20970;SDS011;10644;48.834;10.088;2022-08-21T12:17:17;6.53;;;4.13;;
20970;SDS011;10644;48.834;10.088;2022-08-21T12:20:17;3.70;;;3.10;;
20970;SDS011;10644;48.834;10.088;2022-08-21T12:29:07;4.43;;;3.50;;
20970;SDS011;10644;48.834;10.088;2022-08-21T12:31:49;5.87;;;3.90;;
20970;SDS011;10644;48.834;10.088;2022-08-21T12:34:18;7.23;;;3.63;;
20970;SDS011;10644;48.834;10.088;2022-08-21T12:36:49;4.80;;;3.57;;
20970;SDS011;10644;48.834;10.088;2022-08-21T12:39:27;7.23;;;4.10;;
20970;SDS011;10644;48.834;10.088;2022-08-21T12:45:11;7.80;;;3.53;;
20970;SDS011;10644;48.834;10.088;2022-08-21T12:47:51;9.33;;;4.13;;
20970;SDS011;10644;48.834;10.088;2022-08-21T12:50:58;13.07;;;4.77;;
20970;SDS011;10644;48.834;10.088;2022-08-21T12:56:28;6.87;;;4.10;;
20970;SDS011;10644;48.834;10.088;2022-08-21T12:59:00;5.60;;;3.20;;
20970;SDS011;10644;48.834;10.088;2022-08-21T13:01:48;8.67;;;3.90;;
20970;SDS011;10644;48.834;10.088;2022-08-21T13:04:32;5.97;;;3.57;;
20970;SDS011;10644;48.834;10.088;2022-08-21T13:12:45;3.97;;;3.27;;
20970;SDS011;10644;48.834;10.088;2022-08-21T13:20:37;4.67;;;3.40;;
20970;SDS011;10644;48.834;10.088;2022-08-21T13:25:54;7.20;;;3.20;;
20970;SDS011;10644;48.834;10.088;2022-08-21T13:28:34;4.47;;;3.03;;
20970;SDS011;10644;48.834;10.088;2022-08-21T13:31:05;7.23;;;4.10;;
20970;SDS011;10644;48.834;10.088;2022-08-21T13:33:35;3.33;;;3.00;;
20970;SDS011;10644;48.834;10.088;2022-08-21T13:36:19;11.47;;;3.40;;
20970;SDS011;10644;48.834;10.088;2022-08-21T13:38:50;4.47;;;3.20;;
20970;SDS011;10644;48.834;10.088;2022-08-21T13:41:32;8.50;;;3.80;;
20970;SDS011;10644;48.834;10.088;2022-08-21T13:44:05;8.03;;;3.07;;
20970;SDS011;10644;48.834;10.088;2022-08-21T13:52:23;7.23;;;3.10;;
20970;SDS011;10644;48.834;10.088;2022-08-21T13:55:11;8.30;;;3.63;;
20970;SDS011;10644;48.834;10.088;2022-08-21T13:57:44;9.43;;;3.20;;
20970;SDS011;10644;48.834;10.088;2022-08-21T14:03:33;4.70;;;3.20;;
20970;SDS011;10644;48.834;10.088;2022-08-21T14:06:12;5.77;;;3.30;;
20970;SDS011;10644;48.834;10.088;2022-08-21T14:08:47;3.87;;;2.90;;
20970;SDS011;10644;48.834;10.088;2022-08-21T14:19:53;3.47;;;3.10;;
20970;SDS011;10644;48.834;10.088;2022-08-21T14:33:26;4.40;;;3.00;;
20970;SDS011;10644;48.834;10.088;2022-08-21T14:39:05;4.50;;;3.30;;
20970;SDS011;10644;48.834;10.088;2022-08-21T14:41:31;10.07;;;4.07;;
20970;SDS011;10644;48.834;10.088;2022-08-21T14:44:01;20.03;;;5.20;;
20970;SDS011;10644;48.834;10.088;2022-08-21T14:46:29;3.40;;;3.10;;
20970;SDS011;10644;48.834;10.088;2022-08-21T14:48:55;6.47;;;2.93;;
20970;SDS011;10644;48.834;10.088;2022-08-21T14:51:21;11.20;;;4.00;;
20970;SDS011;10644;48.834;10.088;2022-08-21T14:53:47;6.07;;;3.80;;
20970;SDS011;10644;48.834;10.088;2022-08-21T14:56:23;7.27;;;3.33;;
20970;SDS011;10644;48.834;10.088;2022-08-21T15:01:43;12.47;;;4.23;;
20970;SDS011;10644;48.834;10.088;2022-08-21T15:04:12;5.67;;;3.20;;
20970;SDS011;10644;48.834;10.088;2022-08-21T15:06:38;11.33;;;3.70;;
20970;SDS011;10644;48.834;10.088;2022-08-21T15:09:04;5.70;;;3.60;;
20970;SDS011;10644;48.834;10.088;2022-08-21T15:11:31;5.37;;;3.50;;
20970;SDS011;10644;48.834;10.088;2022-08-21T15:13:59;7.67;;;3.53;;
20970;SDS011;10644;48.834;10.088;2022-08-21T15:18:56;6.43;;;3.63;;
20970;SDS011;10644;48.834;10.088;2022-08-21T15:21:37;14.40;;;4.20;;
20970;SDS011;10644;48.834;10.088;2022-08-21T15:24:06;10.63;;;3.53;;
20970;SDS011;10644;48.834;10.088;2022-08-21T15:26:32;7.10;;;3.30;;
20970;SDS011;10644;48.834;10.088;2022-08-21T15:29:08;5.40;;;3.30;;
20970;SDS011;10644;48.834;10.088;2022-08-21T15:34:53;10.67;;;3.93;;
20970;SDS011;10644;48.834;10.088;2022-08-21T15:37:22;16.20;;;4.73;;
20970;SDS011;10644;48.834;10.088;2022-08-21T15:42:52;6.00;;;3.90;;
20970;SDS011;10644;48.834;10.088;2022-08-21T15:45:23;4.53;;;3.00;;
20970;SDS011;10644;48.834;10.088;2022-08-21T15:47:55;5.43;;;3.27;;
20970;SDS011;10644;48.834;10.088;2022-08-21T15:50:22;7.10;;;3.27;;
20970;SDS011;10644;48.834;10.088;2022-08-21T15:52:49;5.73;;;3.87;;
20970;SDS011;10644;48.834;10.088;2022-08-21T15:55:15;4.33;;;3.13;;
20970;SDS011;10644;48.834;10.088;2022-08-21T15:57:59;5.67;;;3.80;;
20970;SDS011;10644;48.834;10.088;2022-08-21T16:00:24;6.43;;;3.77;;
20970;SDS011;10644;48.834;10.088;2022-08-21T16:03:09;11.30;;;4.13;;
20970;SDS011;10644;48.834;10.088;2022-08-21T16:05:48;6.27;;;3.60;;
20970;SDS011;10644;48.834;10.088;2022-08-21T16:08:23;5.73;;;3.20;;
20970;SDS011;10644;48.834;10.088;2022-08-21T16:10:49;10.00;;;3.93;;
20970;SDS011;10644;48.834;10.088;2022-08-21T16:13:27;7.03;;;4.57;;
20970;SDS011;10644;48.834;10.088;2022-08-21T16:18:29;14.53;;;4.67;;
20970;SDS011;10644;48.834;10.088;2022-08-21T16:23:49;9.43;;;4.30;;
20970;SDS011;10644;48.834;10.088;2022-08-21T16:26:14;9.67;;;3.93;;
20970;SDS011;10644;48.834;10.088;2022-08-21T16:28:52;9.30;;;4.07;;
20970;SDS011;10644;48.834;10.088;2022-08-21T16:33:56;3.30;;;2.90;;
20970;SDS011;10644;48.834;10.088;2022-08-21T16:36:28;10.23;;;3.93;;
20970;SDS011;10644;48.834;10.088;2022-08-21T16:38:56;9.93;;;3.50;;
20970;SDS011;10644;48.834;10.088;2022-08-21T16:41:25;8.80;;;3.60;;
20970;SDS011;10644;48.834;10.088;2022-08-21T16:46:26;11.40;;;4.17;;
20970;SDS011;10644;48.834;10.088;2022-08-21T16:51:48;10.00;;;3.80;;
20970;SDS011;10644;48.834;10.088;2022-08-21T16:54:17;9.17;;;3.90;;
20970;SDS011;10644;48.834;10.088;2022-08-21T16:56:54;21.70;;;5.53;;
20970;SDS011;10644;48.834;10.088;2022-08-21T17:01:51;9.83;;;4.50;;
20970;SDS011;10644;48.834;10.088;2022-08-21T17:04:35;9.93;;;3.73;;
20970;SDS011;10644;48.834;10.088;2022-08-21T17:07:08;12.73;;;4.50;;
20970;SDS011;10644;48.834;10.088;2022-08-21T17:09:33;8.40;;;3.20;;
20970;SDS011;10644;48.834;10.088;2022-08-21T17:14:50;10.33;;;3.80;;
20970;SDS011;10644;48.834;10.088;2022-08-21T17:17:16;6.37;;;3.70;;
20970;SDS011;10644;48.834;10.088;2022-08-21T17:19:54;12.27;;;4.80;;
20970;SDS011;10644;48.834;10.088;2022-08-21T17:22:19;6.57;;;4.20;;
20970;SDS011;10644;48.834;10.088;2022-08-21T17:24:46;9.03;;;4.50;;
20970;SDS011;10644;48.834;10.088;2022-08-21T17:27:18;7.23;;;3.93;;
20970;SDS011;10644;48.834;10.088;2022-08-21T17:29:48;13.77;;;5.20;;
20970;SDS011;10644;48.834;10.088;2022-08-21T17:32:14;22.30;;;5.20;;
20970;SDS011;10644;48.834;10.088;2022-08-21T17:34:42;5.90;;;4.50;;
20970;SDS011;10644;48.834;10.088;2022-08-21T17:37:12;11.47;;;4.40;;
20970;SDS011;10644;48.834;10.088;2022-08-21T17:39:40;5.80;;;3.67;;
20970;SDS011;10644;48.834;10.088;2022-08-21T17:45:14;9.03;;;4.30;;
20970;SDS011;10644;48.834;10.088;2022-08-21T17:47:44;6.20;;;4.27;;
20970;SDS011;10644;48.834;10.088;2022-08-21T17:50:11;11.23;;;5.10;;
20970;SDS011;10644;48.834;10.088;2022-08-21T17:55:32;22.20;;;6.07;;
20970;SDS011;10644;48.834;10.088;2022-08-21T17:58:09;21.37;;;6.53;;
20970;SDS011;10644;48.834;10.088;2022-08-21T18:00:53;15.27;;;5.37;;
20970;SDS011;10644;48.834;10.088;2022-08-21T18:03:20;14.10;;;4.93;;
20970;SDS011;10644;48.834;10.088;2022-08-21T18:05:47;6.70;;;4.47;;
20970;SDS011;10644;48.834;10.088;2022-08-21T18:08:15;11.83;;;4.30;;
20970;SDS011;10644;48.834;10.088;2022-08-21T18:10:43;12.30;;;4.87;;
20970;SDS011;10644;48.834;10.088;2022-08-21T18:13:14;19.30;;;6.10;;
20970;SDS011;10644;48.834;10.088;2022-08-21T18:15:58;20.27;;;5.40;;
20970;SDS011;10644;48.834;10.088;2022-08-21T18:18:24;20.10;;;5.30;;
20970;SDS011;10644;48.834;10.088;2022-08-21T18:20:52;22.80;;;5.40;;
20970;SDS011;10644;48.834;10.088;2022-08-21T18:23:21;18.03;;;4.83;;
20970;SDS011;10644;48.834;10.088;2022-08-21T18:25:54;14.00;;;4.87;;
20970;SDS011;10644;48.834;10.088;2022-08-21T18:28:22;21.13;;;5.80;;
20970;SDS011;10644;48.834;10.088;2022-08-21T18:30:50;11.20;;;4.70;;
20970;SDS011;10644;48.834;10.088;2022-08-21T18:35:47;10.43;;;4.87;;
20970;SDS011;10644;48.834;10.088;2022-08-21T18:38:23;6.90;;;4.27;;
20970;SDS011;10644;48.834;10.088;2022-08-21T18:41:01;31.93;;;7.97;;
20970;SDS011;10644;48.834;10.088;2022-08-21T18:43:44;13.57;;;4.77;;
20970;SDS011;10644;48.834;10.088;2022-08-21T18:46:28;15.40;;;5.17;;
20970;SDS011;10644;48.834;10.088;2022-08-21T18:48:54;18.67;;;5.80;;
20970;SDS011;10644;48.834;10.088;2022-08-21T18:51:37;15.63;;;5.40;;
20970;SDS011;10644;48.834;10.088;2022-08-21T18:54:14;10.10;;;4.60;;
20970;SDS011;10644;48.834;10.088;2022-08-21T18:56:54;12.47;;;6.23;;
20970;SDS011;10644;48.834;10.088;2022-08-21T18:59:25;8.83;;;4.63;;
20970;SDS011;10644;48.834;10.088;2022-08-21T19:01:53;10.17;;;5.13;;
20970;SDS011;10644;48.834;10.088;2022-08-21T19:06:48;8.93;;;5.47;;
20970;SDS011;10644;48.834;10.088;2022-08-21T19:12:19;12.20;;;5.60;;
20970;SDS011;10644;48.834;10.088;2022-08-21T19:14:51;115.47;;;17.70;;
20970;SDS011;10644;48.834;10.088;2022-08-21T19:17:17;9.80;;;5.40;;
20970;SDS011;10644;48.834;10.088;2022-08-21T19:19:50;11.90;;;5.07;;
20970;SDS011;10644;48.834;10.088;2022-08-21T19:22:18;8.47;;;5.63;;
20970;SDS011;10644;48.834;10.088;2022-08-21T19:24:46;13.40;;;5.93;;
20970;SDS011;10644;48.834;10.088;2022-08-21T19:27:19;10.40;;;4.43;;
20970;SDS011;10644;48.834;10.088;2022-08-21T19:29:58;17.13;;;5.83;;
20970;SDS011;10644;48.834;10.088;2022-08-21T19:32:29;7.43;;;4.97;;
20970;SDS011;10644;48.834;10.088;2022-08-21T19:37:52;9.20;;;4.83;;
20970;SDS011;10644;48.834;10.088;2022-08-21T19:40:18;7.33;;;5.20;;
20970;SDS011;10644;48.834;10.088;2022-08-21T19:42:43;12.30;;;5.50;;
20970;SDS011;10644;48.834;10.088;2022-08-21T19:45:08;14.40;;;5.37;;
20970;SDS011;10644;48.834;10.088;2022-08-21T19:47:35;9.60;;;5.20;;
20970;SDS011;10644;48.834;10.088;2022-08-21T19:50:21;9.43;;;3.97;;
20970;SDS011;10644;48.834;10.088;2022-08-21T19:52:56;10.93;;;6.10;;
20970;SDS011;10644;48.834;10.088;2022-08-21T19:58:58;21.73;;;6.03;;
20970;SDS011;10644;48.834;10.088;2022-08-21T20:01:34;13.87;;;5.40;;
20970;SDS011;10644;48.834;10.088;2022-08-21T20:04:10;13.23;;;5.37;;
20970;SDS011;10644;48.834;10.088;2022-08-21T20:06:37;13.60;;;5.63;;
20970;SDS011;10644;48.834;10.088;2022-08-21T20:09:05;14.43;;;4.77;;
20970;SDS011;10644;48.834;10.088;2022-08-21T20:11:40;10.90;;;4.90;;
20970;SDS011;10644;48.834;10.088;2022-08-21T20:14:11;7.17;;;5.30;;
20970;SDS011;10644;48.834;10.088;2022-08-21T20:19:41;16.13;;;6.17;;
20970;SDS011;10644;48.834;10.088;2022-08-21T20:22:11;14.70;;;5.27;;
20970;SDS011;10644;48.834;10.088;2022-08-21T20:24:39;14.33;;;5.60;;
20970;SDS011;10644;48.834;10.088;2022-08-21T20:27:23;11.40;;;5.53;;
20970;SDS011;10644;48.834;10.088;2022-08-21T20:29:50;7.50;;;4.80;;
20970;SDS011;10644;48.834;10.088;2022-08-21T20:32:30;11.80;;;5.30;;
20970;SDS011;10644;48.834;10.088;2022-08-21T20:35:04;11.60;;;5.87;;
20970;SDS011;10644;48.834;10.088;2022-08-21T20:37:40;10.83;;;4.97;;
20970;SDS011;10644;48.834;10.088;2022-08-21T20:40:11;9.87;;;5.10;;
20970;SDS011;10644;48.834;10.088;2022-08-21T20:42:41;13.30;;;6.23;;
20970;SDS011;10644;48.834;10.088;2022-08-21T20:45:09;10.83;;;5.73;;
20970;SDS011;10644;48.834;10.088;2022-08-21T20:47:41;8.70;;;5.67;;
20970;SDS011;10644;48.834;10.088;2022-08-21T20:50:16;16.13;;;6.63;;
20970;SDS011;10644;48.834;10.088;2022-08-21T20:52:49;10.40;;;5.80;;
20970;SDS011;10644;48.834;10.088;2022-08-21T20:55:24;11.07;;;6.40;;
20970;SDS011;10644;48.834;10.088;2022-08-21T21:01:14;25.93;;;7.13;;
20970;SDS011;10644;48.834;10.088;2022-08-21T21:03:52;13.10;;;5.80;;
20970;SDS011;10644;48.834;10.088;2022-08-21T21:06:30;7.97;;;6.10;;
20970;SDS011;10644;48.834;10.088;2022-08-21T21:09:10;12.90;;;5.87;;
20970;SDS011;10644;48.834;10.088;2022-08-21T21:11:39;12.93;;;6.00;;
20970;SDS011;10644;48.834;10.088;2022-08-21T21:14:11;9.53;;;5.90;;
20970;SDS011;10644;48.834;10.088;2022-08-21T21:19:16;18.70;;;7.60;;
20970;SDS011;10644;48.834;10.088;2022-08-21T21:21:55;15.20;;;7.60;;
20970;SDS011;10644;48.834;10.088;2022-08-21T21:33:51;12.80;;;7.10;;
20970;SDS011;10644;48.834;10.088;2022-08-21T21:39:31;15.87;;;7.03;;
20970;SDS011;10644;48.834;10.088;2022-08-21T21:45:02;11.97;;;6.97;;
20970;SDS011;10644;48.834;10.088;2022-08-21T22:10:45;13.90;;;6.40;;
20970;SDS011;10644;48.834;10.088;2022-08-21T22:15:54;11.20;;;5.83;;